Time;durP1;ratioP1;P1;durP2;ratioP2;P2;SDS_P1;SDS_P2;PMS_P1;PMS_P2;Temp;Humidity;BMP_temperature;BMP_pressure;BME280_temperature;BME280_humidity;BME280_pressure;Samples;Min_cycle;Max_cycle;Signal;HPM_P1;HPM_P2
2020/12/29 00:00:50;;;;;;;49.38;28.40;;;;;;;4.38;100.00;96368.13;5005276;28;20052;-61
2020/12/29 00:03:17;;;;;;;51.33;28.23;;;;;;;4.36;100.00;96304.63;5003706;28;20041;-61
2020/12/29 00:05:42;;;;;;;38.50;22.00;;;;;;;3.93;100.00;96235.25;5003542;28;20062;-61
2020/12/29 00:08:08;;;;;;;36.70;22.88;;;;;;;4.29;100.00;96298.97;5005074;28;20041;-60
2020/12/29 00:10:33;;;;;;;42.70;23.42;;;;;;;3.61;100.00;96206.94;5004002;28;20490;-60
2020/12/29 00:12:59;;;;;;;40.10;22.50;;;;;;;4.26;100.00;96304.34;5003451;28;20040;-61
2020/12/29 00:15:25;;;;;;;36.78;19.38;;;;;;;4.26;100.00;96296.91;5004880;28;20099;-60
2020/12/29 00:17:50;;;;;;;37.95;19.38;;;;;;;4.42;100.00;96297.78;5004964;28;20117;-60
2020/12/29 00:20:16;;;;;;;37.08;19.98;;;;;;;4.38;100.00;96299.59;5004619;28;20168;-60
2020/12/29 00:22:41;;;;;;;45.80;26.90;;;;;;;3.19;100.00;96172.00;5004681;28;20034;-62
2020/12/29 00:25:07;;;;;;;39.75;21.40;;;;;;;4.27;100.00;96295.75;5004456;28;20030;-61
2020/12/29 00:27:32;;;;;;;32.13;16.15;;;;;;;4.18;100.00;96289.63;5004713;28;20036;-60
2020/12/29 00:29:58;;;;;;;26.52;14.05;;;;;;;4.16;100.00;96283.69;5004713;28;20044;-61
2020/12/29 00:32:23;;;;;;;30.15;16.20;;;;;;;3.87;100.00;96248.38;5004652;28;20045;-60
2020/12/29 00:34:49;;;;;;;35.40;17.73;;;;;;;4.10;100.00;96296.06;5004927;28;20040;-61
2020/12/29 00:37:15;;;;;;;30.15;15.85;;;;;;;4.01;100.00;96287.19;5004424;28;20081;-62
2020/12/29 00:39:41;;;;;;;35.80;16.90;;;;;;;3.09;100.00;96178.75;5002817;28;20147;-61
2020/12/29 00:42:06;;;;;;;38.47;16.45;;;;;;;3.83;100.00;96294.06;5004455;28;20040;-61
2020/12/29 00:44:32;;;;;;;28.77;16.13;;;;;;;3.98;100.00;96314.47;5004528;28;20038;-61
2020/12/29 00:46:58;;;;;;;31.80;16.42;;;;;;;3.93;100.00;96296.34;5003053;28;20506;-62
2020/12/29 00:49:23;;;;;;;37.83;20.77;;;;;;;4.04;100.00;96308.41;5004319;28;20036;-62
2020/12/29 00:51:49;;;;;;;33.97;18.55;;;;;;;3.98;100.00;96298.81;5004275;28;20116;-61
2020/12/29 00:54:14;;;;;;;39.05;19.70;;;;;;;4.00;100.00;96317.66;5004594;28;20107;-61
2020/12/29 00:56:40;;;;;;;41.45;18.92;;;;;;;3.87;100.00;96308.66;5004187;28;20299;-62
2020/12/29 00:59:05;;;;;;;46.10;21.40;;;;;;;3.84;100.00;96309.34;5004707;28;20489;-62
2020/12/29 01:01:31;;;;;;;51.13;26.20;;;;;;;3.32;100.00;96231.84;5002719;28;20504;-61
2020/12/29 01:03:56;;;;;;;45.63;23.98;;;;;;;3.66;100.00;96275.16;5004357;28;20033;-62
2020/12/29 01:06:29;;;;;;;58.78;27.65;;;;;;;3.76;100.00;96317.69;5002695;28;20080;-61
2020/12/29 01:08:55;;;;;;;41.95;21.23;;;;;;;3.69;100.00;96331.97;5004661;28;20390;-62
2020/12/29 01:11:20;;;;;;;32.53;16.05;;;;;;;3.77;100.00;96336.53;5004031;28;20060;-62
2020/12/29 01:13:46;;;;;;;36.15;15.38;;;;;;;3.71;100.00;96337.91;5004304;28;20412;-62
2020/12/29 01:16:12;;;;;;;32.10;16.23;;;;;;;3.69;100.00;96322.94;5004468;28;20366;-62
2020/12/29 01:18:38;;;;;;;44.08;19.17;;;;;;;3.65;100.00;96317.34;5002699;28;20524;-61
2020/12/29 01:21:05;;;;;;;35.60;17.98;;;;;;;3.12;100.00;96227.31;5004353;28;20042;-61
2020/12/29 01:23:32;;;;;;;36.85;16.65;;;;;;;2.96;100.00;96190.81;5007684;28;20085;-61
2020/12/29 01:25:58;;;;;;;28.58;15.43;;;;;;;3.70;100.00;96308.13;5007839;28;20050;-61
2020/12/29 01:28:23;;;;;;;29.60;16.10;;;;;;;3.72;100.00;96312.09;5007955;28;20041;-61
2020/12/29 01:30:49;;;;;;;32.45;15.48;;;;;;;3.68;100.00;96305.75;5007141;28;20137;-61
2020/12/29 01:33:14;;;;;;;21.83;11.35;;;;;;;3.71;100.00;96298.75;5022539;28;20428;-60
2020/12/29 01:35:40;;;;;;;18.42;10.00;;;;;;;3.55;100.00;96290.44;5007596;28;20172;-61
2020/12/29 01:38:05;;;;;;;28.80;12.57;;;;;;;3.64;100.00;96306.75;5007458;28;20034;-61
2020/12/29 01:40:31;;;;;;;25.52;14.18;;;;;;;3.59;100.00;96307.78;5005910;28;20038;-61
2020/12/29 01:42:57;;;;;;;26.98;15.32;;;;;;;3.53;100.00;96303.69;5007503;28;20037;-61
2020/12/29 01:45:22;;;;;;;29.83;15.88;;;;;;;2.96;100.00;96223.66;5007151;28;20071;-57
2020/12/29 01:47:48;;;;;;;26.42;12.13;;;;;;;3.59;100.00;96318.72;5005794;28;20037;-58
2020/12/29 01:50:22;;;;;;;21.42;11.38;;;;;;;3.68;100.00;96303.00;5007203;28;20481;-58
2020/12/29 01:52:55;;;;;;;22.10;11.32;;;;;;;3.72;100.00;96317.59;5007098;28;20116;-58
2020/12/29 01:55:21;;;;;;;19.95;9.13;;;;;;;3.77;100.00;96309.13;5006726;28;20050;-60
2020/12/29 01:57:47;;;;;;;18.90;9.25;;;;;;;3.49;100.00;96291.03;5007422;28;20029;-57
2020/12/29 02:00:12;;;;;;;13.35;6.75;;;;;;;3.51;100.00;96310.66;5007251;28;20457;-58
2020/12/29 02:02:40;;;;;;;12.98;6.38;;;;;;;3.13;100.00;96235.16;5007143;28;20056;-57
2020/12/29 02:05:06;;;;;;;15.60;5.47;;;;;;;3.52;100.00;96282.94;5006857;28;20107;-57
2020/12/29 02:07:32;;;;;;;11.48;5.75;;;;;;;3.25;100.00;96220.69;5005111;28;20472;-57
2020/12/29 02:09:58;;;;;;;12.30;7.30;;;;;;;3.64;100.00;96282.91;5006775;28;20485;-58
2020/12/29 02:12:25;;;;;;;18.42;8.85;;;;;;;3.59;100.00;96269.44;5005613;28;20523;-59
2020/12/29 02:14:51;;;;;;;31.80;14.10;;;;;;;3.43;100.00;96268.53;5007265;28;20042;-57
2020/12/29 02:17:16;;;;;;;30.13;15.52;;;;;;;3.15;100.00;96286.03;5006900;28;20038;-57
2020/12/29 02:19:42;;;;;;;30.90;16.48;;;;;;;3.15;100.00;96286.81;5007006;28;20065;-57
2020/12/29 02:22:08;;;;;;;33.80;16.88;;;;;;;3.01;100.00;96231.63;5006443;28;20107;-58
2020/12/29 02:24:33;;;;;;;27.75;13.73;;;;;;;3.10;100.00;96278.81;5006788;28;20144;-59
2020/12/29 02:27:03;;;;;;;30.98;14.63;;;;;;;2.55;100.00;96163.69;5006722;28;20527;-57
2020/12/29 02:29:33;;;;;;;27.38;15.10;;;;;;;2.72;100.00;96207.22;5021607;28;20042;-58
2020/12/29 02:31:59;;;;;;;26.40;12.85;;;;;;;2.61;100.00;96211.53;5020696;28;20046;-59
2020/12/29 02:34:26;;;;;;;26.35;14.18;;;;;;;3.01;100.00;96280.88;5006432;28;20038;-57
2020/12/29 02:36:51;;;;;;;26.92;12.80;;;;;;;2.65;100.00;96217.94;5006289;28;20072;-57
2020/12/29 02:39:17;;;;;;;22.73;12.80;;;;;;;3.07;100.00;96284.97;5006127;28;20442;-58
2020/12/29 02:41:42;;;;;;;23.65;12.23;;;;;;;3.17;100.00;96281.78;5006294;28;20025;-57
2020/12/29 02:44:15;;;;;;;21.45;12.35;;;;;;;2.59;100.00;96203.69;5006229;28;20041;-57
2020/12/29 02:46:41;;;;;;;22.17;12.18;;;;;;;3.17;100.00;96295.47;5006389;28;20045;-58
2020/12/29 02:49:07;;;;;;;28.30;14.07;;;;;;;1.85;100.00;96227.59;5006163;28;20065;-55
2020/12/29 02:51:33;;;;;;;28.17;14.60;;;;;;;2.09;100.00;96232.34;5006179;28;20401;-55
2020/12/29 02:53:58;;;;;;;24.85;13.13;;;;;;;2.30;100.00;96244.03;5020876;28;20463;-56
2020/12/29 02:56:24;;;;;;;22.80;12.10;;;;;;;2.66;100.00;96298.78;5004272;28;20604;-57
2020/12/29 02:58:49;;;;;;;25.17;12.15;;;;;;;2.74;100.00;96293.25;5006147;28;20088;-58
2020/12/29 03:01:14;;;;;;;36.65;18.02;;;;;;;2.39;100.00;96285.72;5006289;28;20470;-58
2020/12/29 03:03:40;;;;;;;44.92;19.92;;;;;;;2.23;100.00;96227.41;5006422;28;20034;-57
2020/12/29 03:06:05;;;;;;;38.10;18.33;;;;;;;2.78;100.00;96304.31;5004761;28;20044;-58
2020/12/29 03:08:31;;;;;;;37.53;17.80;;;;;;;2.45;100.00;96232.47;5020962;28;20025;-56
2020/12/29 03:10:56;;;;;;;33.70;18.48;;;;;;;2.81;100.00;96300.91;5005912;28;20084;-59
2020/12/29 03:13:22;;;;;;;29.75;15.35;;;;;;;2.74;100.00;96309.66;5006303;28;20064;-57
2020/12/29 03:15:47;;;;;;;31.08;15.93;;;;;;;1.95;100.00;96193.63;5006310;28;20038;-57
2020/12/29 03:18:13;;;;;;;32.20;16.52;;;;;;;2.33;100.00;96259.75;5004967;28;20433;-56
2020/12/29 03:20:38;;;;;;;34.30;17.65;;;;;;;2.38;100.00;96245.88;5006011;28;20195;-56
2020/12/29 03:23:03;;;;;;;37.83;17.50;;;;;;;2.72;100.00;96297.44;5005996;28;20434;-58
2020/12/29 03:25:29;;;;;;;42.90;20.65;;;;;;;2.83;100.00;96295.88;5005894;28;20490;-58
2020/12/29 03:27:54;;;;;;;56.80;25.75;;;;;;;2.71;100.00;96304.06;5005754;28;20026;-57
2020/12/29 03:30:19;;;;;;;35.65;18.17;;;;;;;2.72;100.00;96306.44;5005429;28;20045;-57
2020/12/29 03:32:45;;;;;;;39.35;18.55;;;;;;;2.25;100.00;96236.06;5005674;28;20026;-57
2020/12/29 03:35:10;;;;;;;26.55;13.50;;;;;;;2.80;100.00;96302.00;5005637;28;20417;-57
2020/12/29 03:37:36;;;;;;;37.33;19.30;;;;;;;2.20;100.00;96206.22;5004243;28;20117;-56
2020/12/29 03:40:01;;;;;;;30.88;15.30;;;;;;;2.94;100.00;96318.94;5020058;28;20052;-59
2020/12/29 03:42:29;;;;;;;29.08;15.23;;;;;;;2.96;100.00;96311.16;5005112;28;20037;-57
2020/12/29 03:44:54;;;;;;;27.90;14.20;;;;;;;3.01;100.00;96314.50;5005146;28;20092;-57
2020/12/29 03:47:19;;;;;;;25.23;14.38;;;;;;;2.68;100.00;96271.94;5005087;28;20504;-57
2020/12/29 03:49:45;;;;;;;32.85;15.27;;;;;;;3.09;100.00;96312.78;5005352;28;20116;-57
2020/12/29 03:52:11;;;;;;;35.58;16.95;;;;;;;1.74;100.00;96165.56;5003969;28;20414;-56
2020/12/29 03:54:36;;;;;;;23.73;11.70;;;;;;;1.17;100.00;96032.56;5005108;28;20477;-57
2020/12/29 03:57:02;;;;;;;22.60;11.63;;;;;;;3.00;100.00;96344.94;5005074;28;20136;-56
2020/12/29 03:59:27;;;;;;;23.42;12.65;;;;;;;2.88;100.00;96314.78;5005054;28;20099;-58
2020/12/29 04:01:52;;;;;;;22.85;13.07;;;;;;;2.97;100.00;96340.91;5004726;28;20029;-56
2020/12/29 04:04:18;;;;;;;29.60;14.15;;;;;;;3.01;100.00;96355.53;5005155;28;20556;-56
2020/12/29 04:06:43;;;;;;;31.05;13.10;;;;;;;2.97;100.00;96329.19;5005408;28;20091;-56
2020/12/29 04:09:08;;;;;;;22.40;11.43;;;;;;;2.45;100.00;96257.09;5003265;28;20041;-56
2020/12/29 04:11:34;;;;;;;36.00;14.63;;;;;;;2.83;100.00;96329.50;5003024;28;20042;-59
2020/12/29 04:13:59;;;;;;;27.90;12.57;;;;;;;2.68;100.00;96332.06;5004661;28;20033;-56
2020/12/29 04:16:25;;;;;;;23.17;11.30;;;;;;;2.73;100.00;96345.53;5004903;28;20037;-56
2020/12/29 04:18:51;;;;;;;18.63;9.77;;;;;;;2.78;100.00;96351.56;5004915;28;20116;-57
2020/12/29 04:21:16;;;;;;;20.08;9.93;;;;;;;2.70;100.00;96357.94;5005012;28;20041;-56
2020/12/29 04:23:42;;;;;;;23.63;11.50;;;;;;;1.72;100.00;96195.13;5004826;28;20080;-56
2020/12/29 04:26:12;;;;;;;31.23;16.45;;;;;;;2.71;100.00;96358.72;5003312;28;20037;-59
2020/12/29 04:28:38;;;;;;;23.92;12.70;;;;;;;2.37;100.00;96315.34;5004514;28;20140;-56
2020/12/29 04:31:03;;;;;;;23.98;12.32;;;;;;;2.57;100.00;96366.44;5004357;28;20519;-56
2020/12/29 04:33:29;;;;;;;25.58;13.43;;;;;;;2.53;100.00;96369.03;5004848;28;20036;-56
2020/12/29 04:35:54;;;;;;;19.38;11.82;;;;;;;2.59;100.00;96372.38;5004787;28;20225;-58
2020/12/29 04:38:20;;;;;;;24.77;13.20;;;;;;;2.16;100.00;96309.91;5004733;28;20041;-57
2020/12/29 04:40:45;;;;;;;33.13;19.42;;;;;;;2.56;100.00;96389.44;5003192;28;20040;-56
2020/12/29 04:43:11;;;;;;;22.58;13.13;;;;;;;1.74;100.00;96272.81;5004497;28;20041;-56
2020/12/29 04:45:36;;;;;;;32.92;18.88;;;;;;;2.56;100.00;96383.97;5004967;28;20077;-58
2020/12/29 04:48:02;;;;;;;32.97;17.95;;;;;;;2.63;100.00;96401.44;5005062;28;20096;-57
2020/12/29 04:50:30;;;;;;;43.05;22.67;;;;;;;2.60;100.00;96404.03;5004665;28;20079;-57
2020/12/29 04:52:58;;;;;;;32.55;16.95;;;;;;;2.30;100.00;96386.91;5004697;28;20033;-58
2020/12/29 04:55:30;;;;;;;43.35;22.90;;;;;;;2.58;100.00;96409.81;5004959;28;20054;-56
2020/12/29 04:57:57;;;;;;;27.58;14.63;;;;;;;2.54;100.00;96424.50;5008496;28;20053;-56
2020/12/29 05:00:24;;;;;;;25.55;11.73;;;;;;;2.52;100.00;96426.75;5008312;28;20106;-56
2020/12/29 05:02:50;;;;;;;48.20;22.08;;;;;;;2.56;100.00;96417.56;5008470;28;20501;-59
2020/12/29 05:05:15;;;;;;;56.10;27.38;;;;;;;2.35;100.00;96411.31;5007882;28;20084;-57
2020/12/29 05:07:40;;;;;;;54.47;24.83;;;;;;;2.50;100.00;96409.88;5008202;28;20069;-56
2020/12/29 05:10:09;;;;;;;49.65;24.92;;;;;;;2.59;100.00;96433.28;5008232;28;20046;-56
2020/12/29 05:12:46;;;;;;;51.20;24.40;;;;;;;2.66;100.00;96421.81;5008185;28;20034;-57
2020/12/29 05:15:12;;;;;;;30.17;16.05;;;;;;;2.73;100.00;96422.09;5006417;28;20034;-56
2020/12/29 05:17:37;;;;;;;33.20;17.15;;;;;;;2.25;100.00;96351.59;5007808;28;20425;-55
2020/12/29 05:20:03;;;;;;;32.75;16.05;;;;;;;2.73;100.00;96427.56;5006185;28;20057;-58
2020/12/29 05:22:29;;;;;;;30.13;16.25;;;;;;;1.84;100.00;96416.28;5007522;28;20132;-56
2020/12/29 05:24:54;;;;;;;28.42;14.52;;;;;;;2.54;100.00;96430.78;5007752;28;20493;-58
2020/12/29 05:27:21;;;;;;;20.40;11.50;;;;;;;2.04;100.00;96378.09;5007590;28;20033;-56
2020/12/29 05:29:46;;;;;;;25.00;12.35;;;;;;;1.91;100.00;96372.91;5007631;28;20038;-58
2020/12/29 05:32:24;;;;;;;19.77;9.52;;;;;;;2.43;100.00;96428.78;5007407;28;20037;-56
2020/12/29 05:34:49;;;;;;;25.08;14.20;;;;;;;2.42;100.00;96416.25;5007620;28;20054;-56
2020/12/29 05:37:16;;;;;;;24.13;13.02;;;;;;;2.55;100.00;96448.75;5007458;28;20029;-55
2020/12/29 05:39:41;;;;;;;20.35;9.68;;;;;;;2.64;100.00;96435.03;5005694;28;20038;-57
2020/12/29 05:42:07;;;;;;;21.30;10.35;;;;;;;2.79;100.00;96439.88;5007342;28;20489;-56
2020/12/29 05:44:34;;;;;;;32.65;15.27;;;;;;;2.70;100.00;96423.53;5007268;28;20034;-58
2020/12/29 05:47:02;;;;;;;34.88;17.52;;;;;;;2.82;100.00;96448.22;5005920;28;20068;-56
2020/12/29 05:49:30;;;;;;;49.83;27.15;;;;;;;1.84;100.00;96302.44;5005644;28;20467;-56
2020/12/29 05:51:56;;;;;;;58.60;31.13;;;;;;;-0.18;100.00;95988.84;5007042;28;20062;-56
2020/12/29 05:54:23;;;;;;;56.15;31.23;;;;;;;2.68;100.00;96452.38;5005818;28;20041;-57
2020/12/29 05:56:50;;;;;;;58.30;31.20;;;;;;;2.62;100.00;96450.97;5005835;28;20050;-58
2020/12/29 05:59:16;;;;;;;98.82;51.38;;;;;;;2.72;100.00;96447.81;5007786;28;20112;-56
2020/12/29 06:01:50;;;;;;;103.50;52.97;;;;;;;2.85;100.00;96453.00;5007385;28;20113;-56
2020/12/29 06:04:16;;;;;;;99.22;51.15;;;;;;;2.81;100.00;96467.69;5022327;28;20038;-56
2020/12/29 06:06:46;;;;;;;97.60;53.53;;;;;;;2.92;100.00;96463.41;5005950;28;20421;-56
2020/12/29 06:09:14;;;;;;;65.93;36.53;;;;;;;3.00;100.00;96471.53;5006813;28;20046;-57
2020/12/29 06:11:52;;;;;;;99.32;52.90;;;;;;;3.09;100.00;96475.00;5006652;28;20030;-57
2020/12/29 06:14:20;;;;;;;67.57;34.53;;;;;;;3.15;100.00;96466.59;5006933;28;20563;-57
2020/12/29 06:16:46;;;;;;;79.82;37.70;;;;;;;3.16;100.00;96458.03;5006795;28;20579;-59
2020/12/29 06:19:20;;;;;;;70.50;33.30;;;;;;;3.28;100.00;96455.34;5004911;28;20036;-57
2020/12/29 06:21:52;;;;;;;54.33;29.98;;;;;;;3.27;100.00;96453.75;5006287;28;20077;-58
2020/12/29 06:24:20;;;;;;;64.68;32.67;;;;;;;3.35;100.00;96469.25;5006685;28;20045;-57
2020/12/29 06:26:48;;;;;;;37.05;19.33;;;;;;;3.32;100.00;96455.47;5004671;28;20036;-57
2020/12/29 06:29:19;;;;;;;31.55;15.10;;;;;;;3.47;100.00;96458.34;5006426;28;20045;-58
2020/12/29 06:31:45;;;;;;;26.27;14.50;;;;;;;3.07;100.00;96376.06;5004894;28;20087;-57
2020/12/29 06:34:14;;;;;;;36.80;20.17;;;;;;;3.59;99.04;96480.25;5006263;28;20452;-57
2020/12/29 06:36:41;;;;;;;52.83;33.17;;;;;;;3.66;99.25;96461.34;5021202;28;20069;-56
2020/12/29 06:39:10;;;;;;;87.38;45.65;;;;;;;3.48;98.42;96432.56;5006034;28;20033;-57
2020/12/29 06:41:35;;;;;;;136.07;83.60;;;;;;;3.78;98.72;96472.31;5005985;28;20045;-57
2020/12/29 06:44:04;;;;;;;180.27;96.78;;;;;;;3.88;99.69;96463.66;5021295;28;20026;-56
2020/12/29 06:46:30;;;;;;;166.65;89.15;;;;;;;4.08;99.66;96481.91;5006164;28;20037;-57
2020/12/29 06:48:57;;;;;;;149.38;72.63;;;;;;;4.13;98.70;96475.41;5005946;28;20096;-59
2020/12/29 06:51:23;;;;;;;111.00;56.90;;;;;;;3.84;99.59;96407.94;5004688;28;20544;-58
2020/12/29 06:53:49;;;;;;;72.40;38.13;;;;;;;1.60;99.36;96028.63;4995842;28;20026;-59
2020/12/29 06:56:18;;;;;;;59.25;32.22;;;;;;;3.93;99.88;96444.25;5004518;28;20453;-58
2020/12/29 06:58:43;;;;;;;63.78;34.92;;;;;;;4.69;99.13;96458.00;5006484;28;20061;-57
2020/12/29 07:01:34;;;;;;;32.33;16.65;;;;;;;4.75;98.05;96436.59;5005559;28;20524;-58
2020/12/29 07:04:02;;;;;;;21.10;12.77;;;;;;;4.83;96.54;96465.81;5006252;28;20029;-59
2020/12/29 07:06:29;;;;;;;29.27;16.60;;;;;;;4.68;95.17;96427.00;5005803;28;20037;-60
2020/12/29 07:09:09;;;;;;;36.58;19.52;;;;;;;5.19;94.22;96457.44;5005100;28;20092;-59
2020/12/29 07:11:35;;;;;;;34.25;20.50;;;;;;;5.43;91.83;96479.31;5004697;28;20038;-60
2020/12/29 07:14:05;;;;;;;38.00;22.45;;;;;;;5.58;91.92;96475.81;5019180;28;20032;-58
2020/12/29 07:16:34;;;;;;;49.28;24.77;;;;;;;5.72;92.08;96487.19;5004781;28;20047;-63
2020/12/29 07:19:10;;;;;;;47.78;24.38;;;;;;;6.02;92.48;96482.88;5019003;28;20115;-59
2020/12/29 07:21:36;;;;;;;42.05;23.50;;;;;;;6.15;90.52;96487.13;5004808;28;20041;-58
2020/12/29 07:24:06;;;;;;;34.55;18.30;;;;;;;6.05;89.26;96468.44;5004913;28;20073;-62
2020/12/29 07:26:40;;;;;;;33.85;18.33;;;;;;;6.28;88.91;96485.06;5005184;28;20033;-61
2020/12/29 07:29:07;;;;;;;24.15;11.82;;;;;;;6.62;88.70;96504.41;5004807;28;20206;-61
2020/12/29 07:31:43;;;;;;;15.50;9.88;;;;;;;5.82;87.66;96398.72;5019915;28;20038;-60
2020/12/29 07:34:13;;;;;;;13.23;9.60;;;;;;;6.74;88.17;96485.00;5005457;28;20545;-62
2020/12/29 07:36:49;;;;;;;15.57;9.95;;;;;;;6.94;86.77;96461.06;5005024;28;20057;-64
2020/12/29 07:39:16;;;;;;;18.95;11.48;;;;;;;7.40;85.40;96496.66;5000481;28;20584;-60
2020/12/29 07:41:42;;;;;;;23.35;13.13;;;;;;;7.60;85.89;96495.47;5000220;28;20407;-58
2020/12/29 07:44:08;;;;;;;32.53;18.60;;;;;;;7.82;84.38;96512.44;4985404;28;20034;-58
2020/12/29 07:46:34;;;;;;;26.27;16.73;;;;;;;7.98;84.34;96499.34;4985091;28;20045;-61
2020/12/29 07:49:00;;;;;;;21.65;12.00;;;;;;;8.17;83.42;96502.81;5000983;28;20520;-58
2020/12/29 07:51:26;;;;;;;20.00;13.15;;;;;;;8.50;83.12;96510.50;5004995;28;20088;-60
2020/12/29 07:53:52;;;;;;;25.80;17.15;;;;;;;8.60;83.01;96493.34;5020179;28;20523;-59
2020/12/29 07:56:18;;;;;;;123.88;59.72;;;;;;;8.60;82.45;96454.69;5019309;28;20054;-62
2020/12/29 07:58:44;;;;;;;43.53;21.65;;;;;;;8.96;80.24;96489.94;5004428;28;20088;-61
2020/12/29 08:01:11;;;;;;;27.00;16.58;;;;;;;9.17;79.82;96523.34;5003935;28;20038;-61
2020/12/29 08:03:37;;;;;;;31.23;17.88;;;;;;;9.33;80.56;96498.28;5004347;28;20037;-63
2020/12/29 08:06:03;;;;;;;33.40;21.83;;;;;;;9.55;79.42;96489.91;5004632;28;20104;-59
2020/12/29 08:08:28;;;;;;;41.72;20.20;;;;;;;9.86;78.62;96506.06;5003160;28;20080;-59
2020/12/29 08:10:53;;;;;;;27.30;18.23;;;;;;;9.81;79.39;96492.59;5004101;28;20076;-61
2020/12/29 08:13:19;;;;;;;26.10;17.73;;;;;;;9.92;78.47;96471.34;5004186;28;20040;-60
2020/12/29 08:15:47;;;;;;;43.85;22.75;;;;;;;10.38;78.10;96505.84;5004067;28;20409;-58
2020/12/29 08:18:14;;;;;;;54.85;30.33;;;;;;;10.70;76.69;96501.34;5004684;28;20401;-61
2020/12/29 08:20:46;;;;;;;51.25;24.45;;;;;;;10.92;74.94;96512.59;5003810;28;20091;-60
2020/12/29 08:23:13;;;;;;;41.92;24.23;;;;;;;11.13;74.68;96507.19;5004604;28;20032;-58
2020/12/29 08:25:39;;;;;;;35.05;21.67;;;;;;;11.16;73.29;96517.50;5002086;28;20463;-62
2020/12/29 08:28:07;;;;;;;34.55;19.50;;;;;;;11.19;72.62;96539.69;5004481;28;20050;-62
2020/12/29 08:30:36;;;;;;;18.80;11.48;;;;;;;10.53;72.85;96427.22;5005418;28;20061;-61
2020/12/29 08:33:05;;;;;;;20.15;12.88;;;;;;;10.86;75.74;96530.75;4991268;28;20495;-62
2020/12/29 08:35:56;;;;;;;20.00;12.93;;;;;;;11.01;74.84;96530.47;5008360;28;20030;-60
2020/12/29 08:38:30;;;;;;;18.83;11.43;;;;;;;11.22;74.19;96532.59;5008792;28;20109;-59
2020/12/29 08:41:13;;;;;;;17.05;11.05;;;;;;;11.13;75.28;96534.91;5008359;28;20041;-62
2020/12/29 08:43:49;;;;;;;19.90;10.65;;;;;;;11.25;74.03;96531.81;5003053;28;20496;-58
2020/12/29 08:46:16;;;;;;;21.90;10.32;;;;;;;10.99;73.87;96459.97;4988833;28;20137;-60
2020/12/29 08:49:01;;;;;;;13.48;9.27;;;;;;;11.40;74.19;96534.28;5001468;28;20102;-60
2020/12/29 08:51:47;;;;;;;13.68;6.75;;;;;;;11.52;74.26;96538.69;5007391;28;20104;-57
2020/12/29 08:54:18;;;;;;;11.73;5.93;;;;;;;11.75;73.67;96542.00;5007238;28;20072;-64
2020/12/29 08:56:45;;;;;;;17.67;6.57;;;;;;;11.82;73.32;96511.50;5007616;28;20057;-62
2020/12/29 08:59:14;;;;;;;14.35;8.45;;;;;;;12.22;72.13;96536.19;5007464;28;20088;-60
2020/12/29 09:01:50;;;;;;;13.93;7.93;;;;;;;12.38;71.25;96536.63;5007666;28;20034;-59
2020/12/29 09:04:33;;;;;;;18.02;8.45;;;;;;;12.62;70.98;96543.41;5007544;28;20042;-61
2020/12/29 09:07:01;;;;;;;18.27;9.30;;;;;;;12.80;70.37;96533.91;5005708;28;20040;-61
2020/12/29 09:09:28;;;;;;;18.42;11.60;;;;;;;12.52;69.75;96483.88;5006939;28;20049;-59
2020/12/29 09:12:07;;;;;;;17.95;10.57;;;;;;;12.51;69.14;96484.28;5007355;28;20080;-61
2020/12/29 09:14:32;;;;;;;19.17;10.20;;;;;;;12.50;68.74;96480.72;5007843;28;20053;-62
2020/12/29 09:17:05;;;;;;;16.45;9.48;;;;;;;12.07;68.16;96410.47;5007313;28;20029;-61
2020/12/29 09:19:31;;;;;;;17.40;9.13;;;;;;;12.64;69.58;96530.72;5022760;28;20039;-63
2020/12/29 09:22:08;;;;;;;18.83;9.52;;;;;;;12.45;70.11;96492.22;5006952;28;20133;-63
2020/12/29 09:24:34;;;;;;;19.95;11.27;;;;;;;12.77;70.00;96529.13;5007752;28;20417;-60
2020/12/29 09:27:00;;;;;;;55.35;28.58;;;;;;;12.80;70.38;96528.34;5021893;28;20048;-62
2020/12/29 09:29:26;;;;;;;37.20;21.00;;;;;;;12.00;69.90;96395.78;5007929;28;20041;-61
2020/12/29 09:31:55;;;;;;;21.73;14.25;;;;;;;12.31;70.33;96433.88;5007451;28;20037;-61
2020/12/29 09:34:21;;;;;;;30.77;16.00;;;;;;;12.90;70.67;96541.44;5006784;28;20132;-61
2020/12/29 09:36:47;;;;;;;27.48;13.88;;;;;;;12.39;70.65;96446.59;5005203;28;20522;-58
2020/12/29 09:39:12;;;;;;;17.15;10.30;;;;;;;12.95;70.44;96523.56;5007037;28;20030;-61
2020/12/29 09:41:38;;;;;;;34.40;16.38;;;;;;;13.05;70.70;96518.03;5006982;28;20465;-62
2020/12/29 09:44:04;;;;;;;11.18;6.20;;;;;;;13.24;70.15;96514.84;5006648;28;20440;-64
2020/12/29 09:46:37;;;;;;;14.65;6.72;;;;;;;13.38;69.53;96514.81;5007320;28;20056;-60
2020/12/29 09:49:02;;;;;;;19.83;10.77;;;;;;;13.55;68.58;96508.38;5007067;28;20037;-62
2020/12/29 09:51:28;;;;;;;14.55;6.60;;;;;;;13.41;68.81;96510.41;5006606;28;20066;-63
2020/12/29 09:53:53;;;;;;;16.35;8.85;;;;;;;13.51;69.09;96518.72;5002138;28;20030;-61
2020/12/29 09:56:20;;;;;;;12.52;8.18;;;;;;;13.77;69.43;96520.22;4997073;28;20434;-63
2020/12/29 09:58:46;;;;;;;19.33;11.48;;;;;;;13.75;68.82;96488.44;4987370;28;20058;-62
2020/12/29 10:01:11;;;;;;;11.02;6.57;;;;;;;14.14;67.54;96514.91;4987257;28;20429;-63
2020/12/29 10:03:37;;;;;;;20.00;9.68;;;;;;;12.09;67.17;96171.34;4987418;28;20030;-63
2020/12/29 10:06:03;;;;;;;12.75;7.60;;;;;;;12.86;67.52;96326.63;4986674;28;20265;-62
2020/12/29 10:08:28;;;;;;;6.68;4.13;;;;;;;12.34;66.78;96233.13;4994193;28;20063;-62
2020/12/29 10:10:53;;;;;;;9.68;4.15;;;;;;;13.71;67.62;96460.63;5007063;28;20038;-62
2020/12/29 10:13:19;;;;;;;8.68;3.53;;;;;;;14.18;66.30;96517.66;5005918;28;20045;-62
2020/12/29 10:15:44;;;;;;;6.65;3.40;;;;;;;13.17;66.45;96381.34;5006183;28;20065;-61
2020/12/29 10:18:10;;;;;;;14.20;4.82;;;;;;;14.14;67.85;96505.75;5005323;28;20132;-61
2020/12/29 10:20:35;;;;;;;5.20;3.17;;;;;;;14.32;66.94;96506.47;5005720;28;20061;-63
2020/12/29 10:23:00;;;;;;;10.50;4.47;;;;;;;14.46;67.39;96500.81;5005695;28;20440;-62
2020/12/29 10:25:26;;;;;;;10.98;4.00;;;;;;;13.86;67.56;96478.84;5006222;28;20070;-61
2020/12/29 10:27:51;;;;;;;8.13;3.95;;;;;;;14.28;67.46;96508.47;5006019;28;20049;-62
2020/12/29 10:30:17;;;;;;;52.40;24.73;;;;;;;13.03;68.47;96331.38;5006439;28;20042;-61
2020/12/29 10:32:44;;;;;;;14.55;5.90;;;;;;;14.08;65.62;96429.38;5006539;28;20409;-61
2020/12/29 10:35:09;;;;;;;8.98;4.18;;;;;;;14.20;67.72;96495.75;5006483;28;20117;-61
2020/12/29 10:37:35;;;;;;;6.47;3.03;;;;;;;13.87;68.63;96490.75;5005985;28;20547;-60
2020/12/29 10:40:01;;;;;;;13.80;3.95;;;;;;;14.24;68.80;96482.63;5004587;28;20048;-62
2020/12/29 10:42:26;;;;;;;18.08;9.60;;;;;;;14.65;67.66;96497.47;5006404;28;20109;-63
2020/12/29 10:44:52;;;;;;;10.52;6.28;;;;;;;14.67;66.66;96450.44;5004839;28;20085;-61
2020/12/29 10:47:17;;;;;;;159.30;75.78;;;;;;;15.29;64.97;96487.31;5005639;28;20409;-62
2020/12/29 10:49:43;;;;;;;10.98;5.32;;;;;;;14.00;65.09;96333.97;5006028;28;20041;-64
2020/12/29 10:52:08;;;;;;;26.50;12.43;;;;;;;15.08;65.40;96476.38;5003287;28;20040;-61
2020/12/29 10:54:34;;;;;;;8.25;3.65;;;;;;;15.30;63.74;96472.16;5004501;28;20485;-62
2020/12/29 10:56:59;;;;;;;14.70;4.22;;;;;;;15.09;63.15;96419.38;5001001;28;20065;-61
2020/12/29 10:59:24;;;;;;;21.02;8.77;;;;;;;15.66;62.67;96467.81;5006161;28;20050;-62
2020/12/29 11:01:55;;;;;;;8.35;2.83;;;;;;;14.55;64.00;96415.53;5005996;28;20112;-62
2020/12/29 11:04:22;;;;;;;6.85;2.88;;;;;;;14.89;65.11;96463.81;5004251;28;20045;-61
2020/12/29 11:06:48;;;;;;;10.65;3.17;;;;;;;15.11;64.16;96467.19;5003974;28;20037;-62
2020/12/29 11:09:13;;;;;;;8.60;2.92;;;;;;;15.18;61.72;96416.88;5002401;28;20029;-61
2020/12/29 11:11:38;;;;;;;13.70;4.65;;;;;;;15.47;61.20;96420.97;5004896;28;20045;-62
2020/12/29 11:14:04;;;;;;;5.10;2.83;;;;;;;15.01;62.68;96415.09;5003811;28;20030;-61
2020/12/29 11:16:29;;;;;;;6.13;3.33;;;;;;;15.65;62.38;96455.03;5004749;28;20041;-62
2020/12/29 11:18:55;;;;;;;6.05;3.60;;;;;;;15.98;61.70;96451.41;5020362;28;20033;-63